LIBN/LCC METAR and TAF weather

Enter ICAO airport designator
Station Type Date Time Source
LIBN METAR 2019/08/20 08:55 UTC NOAA

LIBN 200855Z 03006KT CAVOK 31/18 Q1017 RMK SKC VIS MIN 9999 WIND THR14 06006KT WIND THR32 03004KT BLU


Station Type Date Time Source
LIBN Decoded METAR 2019/08/20 08:55 UTC NOAA

Lecce, Italy (LIBN) 40-14N 018-09E 61M
Aug 20, 2019 - 04:55 AM EDT / 2019.08.20 0855 UTC
Wind: from the NNE (030 degrees) at 7 MPH (6 KT):0
Visibility: greater than 7 mile(s):0
Temperature: 87 F (31 C)
Dew Point: 64 F (18 C)
Relative Humidity: 45%
Pressure (altimeter): 30.03 in. Hg (1017 hPa)
ob: LIBN 200855Z 03006KT CAVOK 31/18 Q1017 RMK SKC VIS MIN 9999 WIND THR14 06006KT WIND THR32 03004KT BLU
cycle: 9

Station Type Date Time Source
LIBN TAF 2019/06/18 09:24 UTC NOAA

TAF TAF LIBN 180800Z 1809/1821 03005KT CAVOK
TEMPO 1811/1814 FEW020CB SCT025

Example: see airport list